createdAt,value
2022-12-14T00:01:49.247Z,-2.30
2022-12-14T00:04:17.430Z,-2.20
2022-12-14T00:06:45.272Z,-2.30
2022-12-14T00:09:12.659Z,-2.30
2022-12-14T00:11:40.259Z,-2.20
2022-12-14T00:14:07.854Z,-2.20
2022-12-14T00:16:36.240Z,-2.10
2022-12-14T00:19:05.708Z,-2.10
2022-12-14T00:21:33.316Z,-2.10
2022-12-14T00:24:00.891Z,-2.20
2022-12-14T00:26:31.507Z,-2.20
2022-12-14T00:29:01.105Z,-2.20
2022-12-14T00:31:28.872Z,-2.40
2022-12-14T00:33:56.356Z,-2.40
2022-12-14T00:36:24.147Z,-2.30
2022-12-14T00:38:51.655Z,-2.30
2022-12-14T00:41:19.835Z,-2.30
2022-12-14T00:43:49.185Z,-2.40
2022-12-14T00:46:18.177Z,-2.40
2022-12-14T00:48:46.519Z,-2.30
2022-12-14T00:51:15.149Z,-2.40
2022-12-14T00:53:44.850Z,-2.40
2022-12-14T00:56:12.343Z,-2.40
2022-12-14T00:58:39.918Z,-2.50
2022-12-14T01:01:12.735Z,-2.40
2022-12-14T01:03:40.577Z,-2.50
2022-12-14T01:06:15.131Z,-2.50
2022-12-14T01:08:42.860Z,-2.60
2022-12-14T01:11:14.003Z,-2.60
2022-12-14T01:13:42.007Z,-2.50
2022-12-14T01:16:12.418Z,-2.40
2022-12-14T01:18:42.196Z,-2.40
2022-12-14T01:21:18.532Z,-2.50
2022-12-14T01:23:47.652Z,-2.60
2022-12-14T01:26:16.308Z,-2.60
2022-12-14T01:28:44.834Z,-2.60
2022-12-14T01:31:17.720Z,-2.60
2022-12-14T01:33:45.770Z,-2.60
2022-12-14T01:36:15.761Z,-2.60
2022-12-14T01:38:43.840Z,-2.50
2022-12-14T01:41:25.461Z,-2.50
2022-12-14T01:43:53.854Z,-2.50
2022-12-14T01:46:33.705Z,-2.70
2022-12-14T01:49:13.657Z,-2.70
2022-12-14T01:51:45.518Z,-2.70
2022-12-14T01:54:14.234Z,-2.80
2022-12-14T01:56:44.815Z,-2.80
2022-12-14T01:59:16.788Z,-2.80
2022-12-14T02:01:44.220Z,-2.80
2022-12-14T02:04:17.632Z,-2.80
2022-12-14T02:06:46.777Z,-2.80
2022-12-14T02:09:19.165Z,-2.80
2022-12-14T02:11:57.008Z,-2.80
2022-12-14T02:14:24.918Z,-2.50
2022-12-14T02:16:55.125Z,-2.60
2022-12-14T02:19:22.586Z,-2.70
2022-12-14T02:22:06.668Z,-2.70
2022-12-14T02:24:52.908Z,-2.50
2022-12-14T02:27:42.685Z,-2.80
2022-12-14T02:30:20.919Z,-2.80
2022-12-14T02:33:06.774Z,-2.80
2022-12-14T02:35:40.067Z,-2.80
2022-12-14T02:38:25.970Z,-2.70
2022-12-14T02:41:09.430Z,-2.70
2022-12-14T02:44:07.790Z,-2.70
2022-12-14T02:46:52.999Z,-2.60
2022-12-14T02:49:41.780Z,-2.60
2022-12-14T02:52:34.646Z,-2.70
2022-12-14T02:55:05.728Z,-2.80
2022-12-14T02:57:40.772Z,-2.80
2022-12-14T03:00:08.648Z,-2.80
2022-12-14T03:02:39.733Z,-2.80
2022-12-14T03:05:07.589Z,-2.80
2022-12-14T03:07:48.661Z,-2.80
2022-12-14T03:10:34.871Z,-2.80
2022-12-14T03:13:25.780Z,-2.80
2022-12-14T03:16:00.546Z,-2.70
2022-12-14T03:18:33.523Z,-2.70
2022-12-14T03:21:02.618Z,-2.70
2022-12-14T03:23:35.087Z,-2.70
2022-12-14T03:26:14.007Z,-2.60
2022-12-14T03:29:09.237Z,-2.50
2022-12-14T03:31:49.002Z,-2.50
2022-12-14T03:34:19.427Z,-2.50
2022-12-14T03:37:10.793Z,-2.70
2022-12-14T03:39:42.290Z,-2.60
2022-12-14T03:54:18.668Z,-2.70
2022-12-14T03:56:55.720Z,-2.60
2022-12-14T03:59:31.994Z,-2.70
2022-12-14T04:02:15.972Z,-2.60
2022-12-14T04:08:02.496Z,-2.80
2022-12-14T04:10:56.941Z,-2.70
2022-12-14T04:13:49.211Z,-2.60
2022-12-14T04:16:40.436Z,-2.80
2022-12-14T04:19:13.979Z,-2.80
2022-12-14T04:21:59.112Z,-2.90
2022-12-14T04:24:59.293Z,-2.90
2022-12-14T04:27:56.163Z,-3.00
2022-12-14T04:30:23.760Z,-3.00
2022-12-14T04:32:55.979Z,-3.10
2022-12-14T04:35:29.988Z,-3.00
2022-12-14T04:38:23.215Z,-3.10
2022-12-14T04:40:56.298Z,-3.10
2022-12-14T04:43:32.131Z,-3.10
2022-12-14T04:46:06.892Z,-3.10
2022-12-14T04:48:39.686Z,-3.10
2022-12-14T04:51:33.648Z,-3.20
2022-12-14T04:54:14.624Z,-3.30
2022-12-14T04:57:14.545Z,-3.30
2022-12-14T04:59:48.080Z,-3.40
2022-12-14T05:02:40.601Z,-3.50
2022-12-14T05:05:28.324Z,-3.50
2022-12-14T05:08:03.007Z,-3.60
2022-12-14T05:10:38.735Z,-3.70
2022-12-14T05:13:19.075Z,-3.70
2022-12-14T05:15:55.195Z,-3.80
2022-12-14T05:18:23.101Z,-3.90
2022-12-14T05:20:50.931Z,-3.90
2022-12-14T05:23:18.536Z,-4.00
2022-12-14T05:25:45.885Z,-4.00
2022-12-14T05:28:16.461Z,-3.90
2022-12-14T05:30:48.980Z,-4.00
2022-12-14T05:33:20.359Z,-4.00
2022-12-14T05:35:47.760Z,-4.00
2022-12-14T05:38:15.148Z,-4.10
2022-12-14T05:40:42.516Z,-4.00
2022-12-14T05:43:12.412Z,-4.00
2022-12-14T05:45:39.944Z,-4.10
2022-12-14T05:48:07.522Z,-3.90
2022-12-14T05:50:34.904Z,-4.10
2022-12-14T05:53:02.352Z,-4.10
2022-12-14T05:55:29.696Z,-4.10
2022-12-14T05:57:57.113Z,-4.30
2022-12-14T06:00:24.603Z,-4.40
2022-12-14T06:02:52.029Z,-4.50
2022-12-14T06:05:19.466Z,-4.50
2022-12-14T06:07:47.054Z,-4.50
2022-12-14T06:10:14.522Z,-4.50
2022-12-14T06:12:41.863Z,-4.50
2022-12-14T06:15:09.651Z,-4.50
2022-12-14T06:17:37.611Z,-4.50
2022-12-14T06:20:05.362Z,-4.50
2022-12-14T06:22:32.708Z,-4.50
2022-12-14T06:25:00.101Z,-4.50
2022-12-14T06:27:27.545Z,-4.50
2022-12-14T06:29:54.940Z,-4.50
2022-12-14T06:32:22.817Z,-4.40
2022-12-14T06:34:50.251Z,-4.30
2022-12-14T06:37:18.376Z,-4.30
2022-12-14T06:39:49.727Z,-4.30
2022-12-14T06:42:21.421Z,-4.20
2022-12-14T06:44:48.808Z,-4.20
2022-12-14T06:47:16.316Z,-4.00
2022-12-14T06:49:43.666Z,-4.10
2022-12-14T06:52:11.050Z,-4.20
2022-12-14T06:54:38.507Z,-4.10
2022-12-14T06:57:05.874Z,-4.10
2022-12-14T06:59:33.211Z,-4.00
2022-12-14T07:02:00.746Z,-4.00
2022-12-14T07:04:28.271Z,-3.90
2022-12-14T07:06:55.684Z,-3.90
2022-12-14T07:09:23.034Z,-3.90
2022-12-14T07:11:51.393Z,-3.80
2022-12-14T07:14:18.785Z,-3.80
2022-12-14T07:16:48.551Z,-3.80
2022-12-14T07:19:17.281Z,-3.80
2022-12-14T07:21:44.756Z,-3.80
2022-12-14T07:24:12.273Z,-3.70
2022-12-14T07:26:39.724Z,-3.70
2022-12-14T07:29:07.192Z,-3.60
2022-12-14T07:31:34.912Z,-3.50
2022-12-14T07:34:02.436Z,-3.50
2022-12-14T07:36:30.840Z,-3.40
2022-12-14T07:38:58.645Z,-3.30
2022-12-14T07:41:30.810Z,-3.20
2022-12-14T07:44:01.140Z,-3.10
2022-12-14T07:46:30.482Z,-3.10
2022-12-14T07:48:59.535Z,-3.20
2022-12-14T07:51:33.332Z,-3.20
2022-12-14T07:54:01.784Z,-3.20
2022-12-14T07:56:32.906Z,-3.10
2022-12-14T07:59:01.997Z,-3.00
2022-12-14T08:01:37.720Z,-2.90
2022-12-14T08:04:13.692Z,-2.80
2022-12-14T08:06:41.937Z,-2.80
2022-12-14T08:09:11.820Z,-2.70
2022-12-14T08:11:40.178Z,-2.60
2022-12-14T08:14:11.921Z,-2.60
2022-12-14T08:16:39.690Z,-2.60
2022-12-14T08:19:07.213Z,-2.60
2022-12-14T08:21:34.679Z,-2.60
2022-12-14T08:24:02.125Z,-2.60
2022-12-14T08:26:35.230Z,-2.60
2022-12-14T08:29:04.238Z,-2.40
2022-12-14T08:31:32.426Z,-2.20
2022-12-14T08:34:01.316Z,-2.20
2022-12-14T08:36:31.563Z,-2.10
2022-12-14T08:39:00.924Z,-2.10
2022-12-14T08:41:29.011Z,-2.00
2022-12-14T08:43:59.109Z,-2.10
2022-12-14T08:46:28.951Z,-2.20
2022-12-14T08:48:57.281Z,-2.10
2022-12-14T08:51:26.202Z,-2.00
2022-12-14T08:53:54.574Z,-2.10
2022-12-14T08:56:27.409Z,-2.00
2022-12-14T08:58:55.503Z,-1.90
2022-12-14T09:01:32.139Z,-1.80
2022-12-14T09:04:08.383Z,-1.70
2022-12-14T09:06:38.551Z,-1.70
2022-12-14T09:09:10.721Z,-1.70
2022-12-14T09:11:44.171Z,-1.60
2022-12-14T09:14:12.121Z,-1.80
2022-12-14T09:16:40.462Z,-1.90
2022-12-14T09:19:08.516Z,-1.80
2022-12-14T09:21:36.115Z,-1.60
2022-12-14T09:24:03.843Z,-1.50
2022-12-14T09:26:31.293Z,-1.40
2022-12-14T09:28:58.837Z,-1.30
2022-12-14T09:31:28.068Z,-1.30
2022-12-14T09:33:56.979Z,-1.30
2022-12-14T09:36:29.066Z,-1.20
2022-12-14T09:38:58.042Z,-1.20
2022-12-14T09:41:36.024Z,-1.20
2022-12-14T09:44:31.325Z,-1.10
2022-12-14T09:47:13.470Z,-1.00
2022-12-14T09:50:03.034Z,-0.90
2022-12-14T09:52:39.159Z,-0.90
2022-12-14T09:55:22.907Z,-0.80
2022-12-14T09:57:56.867Z,-0.70
2022-12-14T10:00:24.607Z,-0.60
2022-12-14T10:03:01.547Z,-0.60
2022-12-14T10:05:55.253Z,-0.70
2022-12-14T10:08:32.694Z,-1.00
2022-12-14T10:11:03.207Z,-1.00
2022-12-14T10:14:00.385Z,-1.10
2022-12-14T10:16:56.617Z,-1.20
2022-12-14T10:19:42.800Z,-1.30
2022-12-14T10:22:24.419Z,-1.30
2022-12-14T10:25:05.976Z,-1.20
2022-12-14T10:28:01.236Z,-1.40
2022-12-14T10:30:22.413Z,-1.30
2022-12-14T10:33:03.481Z,-1.30
2022-12-14T10:35:37.390Z,-1.30
2022-12-14T10:38:25.062Z,-1.30
2022-12-14T10:40:58.093Z,-1.30
2022-12-14T10:43:57.618Z,-1.10
2022-12-14T10:46:37.029Z,-1.20
2022-12-14T10:49:16.515Z,-1.10
2022-12-14T10:51:49.351Z,-1.10
2022-12-14T10:54:38.680Z,-1.00
2022-12-14T10:57:06.310Z,-0.80
2022-12-14T10:59:41.341Z,-0.60
2022-12-14T11:02:18.725Z,-0.30
2022-12-14T11:04:46.226Z,0.20
2022-12-14T11:07:15.966Z,1.50
2022-12-14T11:09:44.596Z,2.50
2022-12-14T11:12:23.148Z,2.70
2022-12-14T11:15:03.158Z,2.60
2022-12-14T11:17:39.997Z,3.30
2022-12-14T11:20:23.183Z,3.60
2022-12-14T11:23:09.449Z,3.70
2022-12-14T11:25:39.431Z,4.10
2022-12-14T11:28:19.068Z,4.40
2022-12-14T11:30:59.417Z,4.80
2022-12-14T11:33:40.378Z,5.30
2022-12-14T11:36:08.921Z,5.50
2022-12-14T11:38:36.885Z,5.90
2022-12-14T11:41:10.686Z,6.70
2022-12-14T11:43:39.557Z,7.50
2022-12-14T11:46:07.717Z,8.10
2022-12-14T11:48:38.570Z,7.70
2022-12-14T11:51:13.977Z,7.80
2022-12-14T11:53:41.900Z,7.70
2022-12-14T11:56:16.779Z,7.60
2022-12-14T11:58:52.188Z,8.00
2022-12-14T12:01:25.715Z,8.10
2022-12-14T12:03:57.406Z,8.60
2022-12-14T12:06:27.814Z,8.90
2022-12-14T12:08:59.724Z,9.00
2022-12-14T12:11:30.994Z,9.30
2022-12-14T12:14:15.856Z,9.50
2022-12-14T12:16:45.284Z,9.80
2022-12-14T12:19:20.339Z,9.40
2022-12-14T12:21:48.665Z,8.80
2022-12-14T12:24:29.938Z,8.80
2022-12-14T12:26:59.135Z,8.20
2022-12-14T12:29:42.105Z,7.70
2022-12-14T12:32:25.098Z,6.40
2022-12-14T12:34:57.273Z,5.10
2022-12-14T12:37:31.906Z,3.90
2022-12-14T12:40:05.125Z,3.00
2022-12-14T12:42:45.979Z,2.40
2022-12-14T12:45:30.849Z,1.80
2022-12-14T12:48:16.159Z,1.50
2022-12-14T12:50:49.561Z,1.20
2022-12-14T12:53:32.427Z,1.00
2022-12-14T12:56:08.768Z,0.90
2022-12-14T12:58:38.381Z,0.70
2022-12-14T13:01:19.689Z,0.60
2022-12-14T13:03:51.712Z,0.40
2022-12-14T13:06:25.177Z,0.40
2022-12-14T13:08:59.812Z,0.30
2022-12-14T13:11:36.055Z,0.10
2022-12-14T13:14:25.500Z,0.00
2022-12-14T13:16:54.321Z,-0.10
2022-12-14T13:19:52.487Z,-0.20
2022-12-14T13:22:30.837Z,-0.40
2022-12-14T13:25:08.103Z,-0.50
2022-12-14T13:27:57.178Z,-0.60
2022-12-14T13:30:53.868Z,-0.70
2022-12-14T13:33:41.821Z,-0.70
2022-12-14T13:36:18.284Z,-0.80
2022-12-14T13:38:55.820Z,-1.00
2022-12-14T13:41:32.234Z,-1.00
2022-12-14T13:44:14.539Z,-1.10
2022-12-14T13:46:42.297Z,-1.10
2022-12-14T13:49:20.462Z,-1.10
2022-12-14T13:51:50.723Z,-1.10
2022-12-14T13:54:34.356Z,-1.10
2022-12-14T13:57:08.962Z,-1.30
2022-12-14T13:59:43.984Z,-1.40
2022-12-14T14:02:34.496Z,-1.40
2022-12-14T14:05:18.916Z,-1.30
2022-12-14T14:07:57.196Z,-1.10
2022-12-14T14:10:34.750Z,-1.30
2022-12-14T14:13:31.246Z,-1.40
2022-12-14T14:19:09.297Z,-1.40
2022-12-14T14:21:58.786Z,-1.40
2022-12-14T14:24:29.153Z,-1.50
2022-12-14T14:27:14.392Z,-1.50
2022-12-14T14:29:49.540Z,-1.50
2022-12-14T14:32:38.990Z,-1.50
2022-12-14T14:35:09.399Z,-1.50
2022-12-14T14:37:39.476Z,-1.50
2022-12-14T14:40:44.094Z,-1.60
2022-12-14T14:43:31.734Z,-1.60
2022-12-14T14:46:03.977Z,-1.70
2022-12-14T14:48:44.663Z,-1.80
2022-12-14T14:51:26.784Z,-1.80
2022-12-14T14:54:36.998Z,-1.90
2022-12-14T14:57:04.599Z,-1.90
2022-12-14T14:59:43.628Z,-1.90
2022-12-14T15:02:45.979Z,-2.00
2022-12-14T15:08:48.030Z,-1.90
2022-12-14T15:11:21.482Z,-2.00
2022-12-14T15:14:06.888Z,-2.00
2022-12-14T15:16:42.738Z,-2.00
2022-12-14T15:19:23.737Z,-2.10
2022-12-14T15:22:05.271Z,-2.10
2022-12-14T15:24:38.942Z,-2.00
2022-12-14T15:27:25.044Z,-2.20
2022-12-14T15:29:54.049Z,-2.00
2022-12-14T15:32:23.793Z,-2.00
2022-12-14T15:34:57.681Z,-2.10
2022-12-14T15:37:32.933Z,-2.00
2022-12-14T15:40:23.928Z,-2.10
2022-12-14T15:42:52.442Z,-2.10
2022-12-14T15:45:24.106Z,-2.00
2022-12-14T15:47:52.414Z,-2.10
2022-12-14T15:50:30.334Z,-2.10
2022-12-14T15:53:07.686Z,-2.20
2022-12-14T15:55:41.691Z,-2.10
2022-12-14T15:58:28.535Z,-2.10
2022-12-14T16:01:09.005Z,-2.10
2022-12-14T16:03:40.785Z,-2.10
2022-12-14T16:06:10.382Z,-2.20
2022-12-14T16:08:42.457Z,-2.20
2022-12-14T16:11:43.383Z,-2.10
2022-12-14T16:14:35.297Z,-2.10
2022-12-14T16:17:04.422Z,-2.10
2022-12-14T16:19:57.582Z,-2.10
2022-12-14T16:22:26.551Z,-2.20
2022-12-14T16:25:03.502Z,-2.10
2022-12-14T16:27:33.672Z,-2.20
2022-12-14T16:30:23.803Z,-2.10
2022-12-14T16:33:15.392Z,-2.00
2022-12-14T16:35:43.696Z,-2.10
2022-12-14T16:38:15.499Z,-2.10
2022-12-14T16:40:50.003Z,-2.10
2022-12-14T16:43:41.031Z,-2.10
2022-12-14T16:46:10.435Z,-2.00
2022-12-14T16:48:40.834Z,-2.00
2022-12-14T16:51:37.990Z,-2.00
2022-12-14T16:54:32.114Z,-1.90
2022-12-14T16:57:07.224Z,-1.90
2022-12-14T16:59:59.268Z,-1.90
2022-12-14T17:02:34.850Z,-1.90
2022-12-14T17:05:23.772Z,-1.90
2022-12-14T17:07:51.213Z,-1.90
2022-12-14T17:10:22.015Z,-2.00
2022-12-14T17:12:49.851Z,-2.00
2022-12-14T17:15:22.351Z,-1.90
2022-12-14T17:17:52.364Z,-2.00
2022-12-14T17:20:26.360Z,-2.00
2022-12-14T17:22:56.557Z,-1.90
2022-12-14T17:25:24.340Z,-2.00
2022-12-14T17:27:52.577Z,-2.00
2022-12-14T17:30:22.444Z,-2.00
2022-12-14T17:32:51.786Z,-2.00
2022-12-14T17:35:28.723Z,-2.00
2022-12-14T17:37:56.584Z,-2.10
2022-12-14T17:40:24.448Z,-2.00
2022-12-14T17:42:53.905Z,-2.00
2022-12-14T17:45:24.957Z,-2.00
2022-12-14T17:47:52.872Z,-2.10
2022-12-14T17:50:21.059Z,-2.10
2022-12-14T17:52:50.232Z,-2.10
2022-12-14T17:55:23.263Z,-2.10
2022-12-14T17:57:51.029Z,-2.10
2022-12-14T18:00:42.800Z,-2.00
2022-12-14T18:03:12.323Z,-2.00
2022-12-14T18:05:46.609Z,-2.00
2022-12-14T18:08:23.360Z,-1.90
2022-12-14T18:10:57.305Z,-2.00
2022-12-14T18:13:24.759Z,-2.00
2022-12-14T18:15:53.367Z,-2.00
2022-12-14T18:18:25.717Z,-1.90
2022-12-14T18:20:55.625Z,-2.10
2022-12-14T18:23:23.130Z,-2.00
2022-12-14T18:25:52.968Z,-2.00
2022-12-14T18:28:21.001Z,-2.10
2022-12-14T18:30:53.181Z,-2.20
2022-12-14T18:33:23.556Z,-2.20
2022-12-14T18:35:52.051Z,-2.20
2022-12-14T18:38:19.797Z,-2.20
2022-12-14T18:40:50.069Z,-2.20
2022-12-14T18:43:23.676Z,-2.10
2022-12-14T18:45:53.158Z,-2.10
2022-12-14T18:48:21.137Z,-2.20
2022-12-14T18:50:49.600Z,-2.20
2022-12-14T18:53:22.791Z,-2.10
2022-12-14T18:55:50.410Z,-2.10
2022-12-14T18:58:21.160Z,-2.10
2022-12-14T19:00:51.584Z,-2.10
2022-12-14T19:03:19.855Z,-2.00
2022-12-14T19:05:47.891Z,-2.10
2022-12-14T19:08:15.634Z,-2.10
2022-12-14T19:10:46.498Z,-2.00
2022-12-14T19:13:25.492Z,-2.00
2022-12-14T19:15:54.330Z,-1.90
2022-12-14T19:18:21.875Z,-1.90
2022-12-14T19:20:49.893Z,-1.90
2022-12-14T19:23:19.208Z,-1.90
2022-12-14T19:25:47.555Z,-2.00
2022-12-14T19:28:31.370Z,-2.00
2022-12-14T19:31:00.712Z,-2.10
2022-12-14T19:33:29.498Z,-2.00
2022-12-14T19:35:57.341Z,-2.00
2022-12-14T19:38:24.755Z,-2.00
2022-12-14T19:41:05.492Z,-1.90
2022-12-14T19:43:33.803Z,-2.00
2022-12-14T19:46:09.162Z,-1.80
2022-12-14T19:48:38.383Z,-1.80
2022-12-14T19:51:11.040Z,-1.70
2022-12-14T19:53:40.343Z,-1.70
2022-12-14T19:56:08.454Z,-1.70
2022-12-14T19:58:36.264Z,-1.70
2022-12-14T20:01:09.191Z,-1.70
2022-12-14T20:03:37.503Z,-1.80
2022-12-14T20:06:06.711Z,-1.80
2022-12-14T20:08:35.307Z,-1.80
2022-12-14T20:11:10.772Z,-1.70
2022-12-14T20:13:38.729Z,-1.70
2022-12-14T20:16:06.846Z,-1.60
2022-12-14T20:18:34.363Z,-1.60
2022-12-14T20:21:06.997Z,-1.60
2022-12-14T20:23:35.459Z,-1.50
2022-12-14T20:26:05.161Z,-1.60
2022-12-14T20:28:32.619Z,-1.60
2022-12-14T20:31:01.311Z,-1.60
2022-12-14T20:33:30.873Z,-1.60
2022-12-14T20:35:59.161Z,-1.60
2022-12-14T20:38:27.096Z,-1.60
2022-12-14T20:40:54.649Z,-1.60
2022-12-14T20:43:22.100Z,-1.50
2022-12-14T20:45:49.543Z,-1.40
2022-12-14T20:48:16.945Z,-1.40
2022-12-14T20:50:44.479Z,-1.30
2022-12-14T20:53:18.580Z,-1.30
2022-12-14T20:55:46.017Z,-1.30
2022-12-14T20:58:13.382Z,-1.20
2022-12-14T21:00:40.855Z,-1.30
2022-12-14T21:03:08.395Z,-1.30
2022-12-14T21:05:43.373Z,-1.20
2022-12-14T21:08:10.904Z,-1.20
2022-12-14T21:10:38.239Z,-1.20
2022-12-14T21:13:07.900Z,-1.20
2022-12-14T21:15:35.761Z,-1.20
2022-12-14T21:18:03.349Z,-1.10
2022-12-14T21:20:30.809Z,-1.10
2022-12-14T21:22:58.268Z,-1.00
2022-12-14T21:25:25.729Z,-1.00
2022-12-14T21:27:53.432Z,-1.00
2022-12-14T21:30:21.077Z,-1.00
2022-12-14T21:32:48.462Z,-0.90
2022-12-14T21:35:18.509Z,-0.90
2022-12-14T21:37:46.045Z,-0.80
2022-12-14T21:40:33.432Z,-0.80
2022-12-14T21:43:00.869Z,-0.70
2022-12-14T21:45:28.283Z,-0.80
2022-12-14T21:47:56.051Z,-0.80
2022-12-14T21:50:23.397Z,-0.90
2022-12-14T21:52:51.074Z,-0.80
2022-12-14T21:55:18.597Z,-0.80
2022-12-14T21:58:04.462Z,-0.80
2022-12-14T22:00:31.939Z,-0.80
2022-12-14T22:02:59.399Z,-0.90
2022-12-14T22:05:26.918Z,-0.80
2022-12-14T22:07:54.302Z,-0.80
2022-12-14T22:10:25.133Z,-0.80
2022-12-14T22:12:52.795Z,-0.80
2022-12-14T22:15:20.247Z,-0.70
2022-12-14T22:17:49.993Z,-0.80
2022-12-14T22:20:17.431Z,-0.70
2022-12-14T22:22:44.965Z,-0.70
2022-12-14T22:25:12.324Z,-0.70
2022-12-14T22:27:39.676Z,-0.80
2022-12-14T22:30:08.771Z,-0.70
2022-12-14T22:32:36.120Z,-0.70
2022-12-14T22:35:03.706Z,-0.70
2022-12-14T22:37:31.106Z,-0.70
2022-12-14T22:39:58.410Z,-0.70
2022-12-14T22:42:25.794Z,-0.70
2022-12-14T22:44:54.594Z,-0.70
2022-12-14T22:47:21.948Z,-0.80
2022-12-14T22:49:49.445Z,-0.70
2022-12-14T22:52:22.876Z,-0.70
2022-12-14T22:54:54.426Z,-0.70
2022-12-14T22:57:22.670Z,-0.70
2022-12-14T22:59:59.492Z,-0.70
2022-12-14T23:02:28.524Z,-0.70
2022-12-14T23:04:56.635Z,-0.70
2022-12-14T23:07:24.224Z,-0.70
2022-12-14T23:10:10.594Z,-0.60
2022-12-14T23:12:56.666Z,-0.50
2022-12-14T23:15:42.516Z,-0.50
2022-12-14T23:18:28.426Z,-0.60
2022-12-14T23:21:14.506Z,-0.50
2022-12-14T23:24:02.700Z,-0.50
2022-12-14T23:26:49.729Z,-0.60
2022-12-14T23:29:35.739Z,-0.60
2022-12-14T23:32:21.585Z,-0.50
2022-12-14T23:35:07.852Z,-0.50
2022-12-14T23:37:54.324Z,-0.40
2022-12-14T23:40:40.710Z,-0.40
2022-12-14T23:43:31.989Z,-0.50
2022-12-14T23:46:18.431Z,-0.50
2022-12-14T23:49:04.423Z,-0.50
2022-12-14T23:51:50.437Z,-0.40
2022-12-14T23:54:36.405Z,-0.40
2022-12-14T23:57:25.824Z,-0.40
